createdAt,value
2018-03-21T00:02:02.734Z,6.47
2018-03-21T00:04:30.171Z,8.70
2018-03-21T00:06:57.608Z,9.70
2018-03-21T00:09:25.102Z,7.45
2018-03-21T00:12:12.021Z,6.15
2018-03-21T00:14:40.303Z,7.75
2018-03-21T00:17:07.732Z,4.00
2018-03-21T00:19:35.289Z,7.68
2018-03-21T00:22:02.735Z,5.20
2018-03-21T00:24:30.172Z,6.10
2018-03-21T00:26:57.672Z,6.20
2018-03-21T00:29:25.110Z,6.37
2018-03-21T00:31:52.577Z,7.18
2018-03-21T00:34:31.088Z,4.68
2018-03-21T00:36:58.558Z,6.15
2018-03-21T00:39:25.996Z,6.25
2018-03-21T00:41:53.684Z,5.82
2018-03-21T00:44:21.182Z,5.00
2018-03-21T00:46:48.634Z,8.25
2018-03-21T00:49:16.074Z,7.95
2018-03-21T00:51:44.301Z,6.70
2018-03-21T00:54:11.756Z,6.70
2018-03-21T00:56:39.218Z,4.47
2018-03-21T00:59:06.753Z,6.90
2018-03-21T01:01:34.204Z,3.80
2018-03-21T01:04:02.933Z,6.78
2018-03-21T01:06:30.377Z,6.28
2018-03-21T01:08:57.822Z,5.82
2018-03-21T01:11:25.293Z,7.55
2018-03-21T01:13:52.724Z,7.07
2018-03-21T01:16:20.293Z,7.00
2018-03-21T01:18:48.505Z,7.20
2018-03-21T01:21:15.952Z,5.22
2018-03-21T01:23:43.443Z,8.52
2018-03-21T01:26:11.655Z,6.10
2018-03-21T01:28:39.089Z,6.87
2018-03-21T01:31:06.680Z,4.65
2018-03-21T01:33:34.129Z,5.20
2018-03-21T01:36:01.603Z,7.25
2018-03-21T01:38:29.102Z,6.37
2018-03-21T01:40:57.312Z,5.55
2018-03-21T01:43:24.759Z,4.60
2018-03-21T01:45:52.288Z,6.60
2018-03-21T01:48:19.757Z,7.28
2018-03-21T01:50:47.995Z,7.35
2018-03-21T01:53:15.429Z,7.75
2018-03-21T01:55:42.902Z,6.12
2018-03-21T01:58:10.344Z,8.65
2018-03-21T02:00:38.007Z,7.87
2018-03-21T02:03:05.453Z,6.32
2018-03-21T02:05:32.917Z,8.90
2018-03-21T02:08:00.364Z,6.47
2018-03-21T02:10:27.831Z,5.60
2018-03-21T02:12:55.481Z,5.35
2018-03-21T02:15:22.922Z,5.30
2018-03-21T02:17:50.361Z,5.22
2018-03-21T02:20:17.907Z,6.43
2018-03-21T02:25:35.994Z,5.30
2018-03-21T02:28:03.444Z,5.18
2018-03-21T02:30:31.748Z,4.90
2018-03-21T02:33:01.106Z,8.30
2018-03-21T02:35:28.589Z,6.05
2018-03-21T02:37:56.797Z,5.40
2018-03-21T02:40:24.245Z,6.68
2018-03-21T02:42:51.718Z,5.50
2018-03-21T02:45:22.997Z,5.15
2018-03-21T02:47:50.430Z,6.05
2018-03-21T02:50:17.879Z,7.55
2018-03-21T02:52:45.330Z,6.43
2018-03-21T02:55:12.802Z,9.85
2018-03-21T02:57:40.248Z,6.50
2018-03-21T03:00:07.695Z,6.37
2018-03-21T03:02:35.303Z,6.35
2018-03-21T03:05:02.749Z,9.88
2018-03-21T03:07:30.189Z,6.47
2018-03-21T03:09:57.657Z,6.22
2018-03-21T03:12:25.096Z,5.47
2018-03-21T03:14:53.670Z,5.97
2018-03-21T03:17:21.112Z,9.00
2018-03-21T03:19:48.580Z,5.18
2018-03-21T03:22:16.022Z,6.37
2018-03-21T03:24:43.644Z,5.57
2018-03-21T03:27:11.093Z,6.70
2018-03-21T03:29:42.247Z,6.22
2018-03-21T03:32:09.688Z,4.87
2018-03-21T03:34:37.140Z,6.28
2018-03-21T03:37:04.669Z,5.72
2018-03-21T03:39:32.116Z,4.95
2018-03-21T03:42:10.280Z,5.80
2018-03-21T03:44:37.733Z,5.03
2018-03-21T03:47:05.250Z,4.75
2018-03-21T03:49:32.711Z,5.95
2018-03-21T03:52:00.159Z,6.28
2018-03-21T03:54:28.386Z,8.73
2018-03-21T03:56:55.844Z,6.35
2018-03-21T03:59:23.308Z,6.68
2018-03-21T04:01:50.748Z,6.10
2018-03-21T04:04:18.302Z,6.20
2018-03-21T04:06:45.757Z,5.70
2018-03-21T04:09:19.343Z,9.13
2018-03-21T04:11:46.778Z,7.12
2018-03-21T04:14:14.993Z,7.62
2018-03-21T04:16:43.005Z,6.93
2018-03-21T04:19:10.441Z,7.45
2018-03-21T04:21:37.876Z,9.80
2018-03-21T04:24:05.526Z,9.48
2018-03-21T04:26:32.976Z,10.95
2018-03-21T04:29:00.445Z,6.50
2018-03-21T04:31:27.930Z,6.22
2018-03-21T04:33:55.378Z,10.43
2018-03-21T04:36:32.161Z,6.95
2018-03-21T04:38:59.629Z,7.25
2018-03-21T04:41:27.066Z,10.27
2018-03-21T04:43:54.657Z,6.18
2018-03-21T04:46:22.097Z,8.23
2018-03-21T04:48:49.561Z,5.90
2018-03-21T04:51:17.035Z,5.78
2018-03-21T04:53:44.478Z,7.40
2018-03-21T04:56:11.916Z,8.40
2018-03-21T04:58:49.300Z,6.30
2018-03-21T05:01:16.739Z,8.65
2018-03-21T05:03:45.568Z,7.28
2018-03-21T05:06:13.015Z,11.30
2018-03-21T05:08:40.466Z,8.13
2018-03-21T05:11:07.929Z,7.78
2018-03-21T05:13:35.676Z,6.47
2018-03-21T05:16:03.125Z,11.15
2018-03-21T05:18:52.634Z,8.35
2018-03-21T05:21:20.076Z,9.57
2018-03-21T05:23:47.525Z,9.13
2018-03-21T05:26:14.991Z,5.95
2018-03-21T05:28:42.445Z,7.00
2018-03-21T05:31:09.889Z,6.00
2018-03-21T05:33:37.329Z,8.05
2018-03-21T05:36:04.856Z,6.62
2018-03-21T05:38:33.065Z,8.98
2018-03-21T05:41:00.548Z,8.00
2018-03-21T05:43:27.995Z,8.60
2018-03-21T05:45:59.385Z,7.25
2018-03-21T05:48:30.445Z,8.90
2018-03-21T05:50:58.649Z,9.30
2018-03-21T05:53:26.088Z,6.12
2018-03-21T05:55:54.496Z,7.78
2018-03-21T05:58:21.950Z,6.93
2018-03-21T06:00:49.393Z,7.68
2018-03-21T06:03:38.820Z,7.62
2018-03-21T06:06:06.268Z,5.18
2018-03-21T06:08:33.814Z,7.57
2018-03-21T06:11:01.434Z,8.65
2018-03-21T06:13:29.876Z,8.38
2018-03-21T06:15:57.505Z,10.27
2018-03-21T06:18:24.945Z,10.75
2018-03-21T06:20:54.616Z,14.48
2018-03-21T06:23:22.053Z,6.78
2018-03-21T06:25:49.600Z,10.82
2018-03-21T06:28:17.805Z,11.38
2018-03-21T06:30:45.250Z,9.50
2018-03-21T06:33:12.717Z,10.88
2018-03-21T06:35:40.168Z,9.98
2018-03-21T06:38:09.031Z,7.05
2018-03-21T06:43:14.580Z,11.10
2018-03-21T06:45:42.070Z,9.07
2018-03-21T06:48:09.514Z,8.75
2018-03-21T06:50:36.961Z,9.20
2018-03-21T06:53:04.456Z,8.82
2018-03-21T06:55:31.903Z,7.45
2018-03-21T06:57:59.369Z,11.68
2018-03-21T07:00:26.814Z,7.40
2018-03-21T07:02:54.278Z,7.62
2018-03-21T07:05:21.748Z,8.02
2018-03-21T07:07:49.184Z,7.10
2018-03-21T07:10:16.629Z,8.93
2018-03-21T07:12:44.181Z,10.95
2018-03-21T07:15:23.357Z,12.07
2018-03-21T07:17:50.957Z,8.93
2018-03-21T07:20:18.398Z,8.77
2018-03-21T07:22:46.828Z,9.57
2018-03-21T07:25:14.302Z,13.30
2018-03-21T07:27:41.744Z,9.15
2018-03-21T07:30:10.118Z,12.98
2018-03-21T07:32:37.605Z,11.52
2018-03-21T07:35:05.101Z,9.20
2018-03-21T07:37:32.561Z,13.48
2018-03-21T07:40:00.387Z,11.57
2018-03-21T07:42:27.830Z,12.50
2018-03-21T07:44:55.279Z,11.60
2018-03-21T07:47:22.745Z,11.48
2018-03-21T07:49:50.209Z,12.05
2018-03-21T07:52:17.686Z,21.62
2018-03-21T07:54:46.705Z,12.18
2018-03-21T07:57:14.393Z,16.75
2018-03-21T07:59:41.842Z,17.02
2018-03-21T08:02:09.320Z,15.35
2018-03-21T08:04:36.803Z,12.52
2018-03-21T08:07:04.243Z,19.87
2018-03-21T08:09:31.680Z,16.62
2018-03-21T08:11:59.277Z,10.38
2018-03-21T08:14:26.740Z,9.77
2018-03-21T08:16:54.171Z,18.45
2018-03-21T08:19:21.619Z,11.02
2018-03-21T08:21:50.345Z,9.60
2018-03-21T08:24:17.785Z,11.55
2018-03-21T08:26:45.218Z,8.00
2018-03-21T08:29:12.748Z,10.75
2018-03-21T08:31:40.229Z,10.13
2018-03-21T08:34:07.679Z,9.30
2018-03-21T08:36:35.204Z,12.30
2018-03-21T08:39:03.439Z,13.07
2018-03-21T08:41:30.874Z,11.18
2018-03-21T08:43:58.315Z,9.45
2018-03-21T08:46:25.949Z,11.32
2018-03-21T08:48:53.397Z,13.00
2018-03-21T08:51:20.829Z,12.63
2018-03-21T08:53:48.367Z,13.45
2018-03-21T08:56:15.792Z,10.30
2018-03-21T08:58:43.999Z,13.00
2018-03-21T09:01:11.469Z,11.50
2018-03-21T09:03:38.922Z,13.38
2018-03-21T09:06:06.361Z,11.52
2018-03-21T09:08:34.166Z,13.93
2018-03-21T09:11:01.610Z,14.13
2018-03-21T09:13:29.132Z,16.62
2018-03-21T09:15:56.582Z,19.42
2018-03-21T09:18:24.825Z,27.75
2018-03-21T09:20:52.256Z,28.75
2018-03-21T09:23:19.688Z,32.10
2018-03-21T09:25:47.496Z,42.22
2018-03-21T09:28:14.956Z,49.80
2018-03-21T09:30:42.399Z,50.92
2018-03-21T09:33:09.865Z,51.13
2018-03-21T09:35:37.331Z,56.35
2018-03-21T09:38:04.833Z,67.82
2018-03-21T09:40:33.052Z,72.53
2018-03-21T09:43:00.576Z,73.07
2018-03-21T09:45:28.023Z,73.22
2018-03-21T09:47:55.492Z,73.35
2018-03-21T09:50:22.947Z,74.70
2018-03-21T09:52:50.433Z,79.80
2018-03-21T09:55:17.951Z,73.70
2018-03-21T09:57:45.437Z,84.70
2018-03-21T10:00:12.880Z,74.07
2018-03-21T10:02:40.385Z,72.72
2018-03-21T10:05:07.827Z,76.97
2018-03-21T10:07:35.274Z,64.57
2018-03-21T10:10:02.736Z,69.90
2018-03-21T10:12:30.178Z,64.07
2018-03-21T10:15:00.178Z,72.95
2018-03-21T10:17:28.386Z,74.90
2018-03-21T10:19:55.895Z,65.72
2018-03-21T10:22:23.329Z,72.40
2018-03-21T10:24:50.798Z,73.05
2018-03-21T10:27:18.253Z,79.25
2018-03-21T10:29:46.113Z,73.10
2018-03-21T10:32:13.569Z,69.18
2018-03-21T10:34:41.012Z,73.18
2018-03-21T10:37:08.506Z,63.50
2018-03-21T10:39:36.720Z,73.70
2018-03-21T10:42:04.165Z,69.53
2018-03-21T10:44:31.645Z,72.00
2018-03-21T10:46:59.092Z,70.35
2018-03-21T10:49:26.624Z,76.05
2018-03-21T10:51:54.837Z,79.95
2018-03-21T10:54:22.333Z,76.97
2018-03-21T10:56:49.776Z,69.53
2018-03-21T10:59:17.226Z,73.37
2018-03-21T11:01:44.724Z,74.87
2018-03-21T11:04:12.960Z,69.65
2018-03-21T11:06:40.406Z,70.85
2018-03-21T11:09:07.854Z,71.40
2018-03-21T11:11:35.347Z,68.57
2018-03-21T11:14:03.002Z,65.50
2018-03-21T11:16:30.535Z,69.45
2018-03-21T11:18:58.756Z,72.32
2018-03-21T11:21:26.224Z,75.18
2018-03-21T11:23:53.652Z,67.18
2018-03-21T11:26:21.116Z,63.45
2018-03-21T11:28:48.565Z,60.33
2018-03-21T11:31:16.111Z,58.13
2018-03-21T11:33:43.556Z,39.60
2018-03-21T11:36:11.012Z,37.67
2018-03-21T11:38:38.453Z,32.25
2018-03-21T11:41:05.922Z,33.90
2018-03-21T11:43:33.363Z,32.55
2018-03-21T11:46:00.953Z,34.38
2018-03-21T11:48:28.772Z,35.88
2018-03-21T11:50:56.975Z,42.55
2018-03-21T11:53:24.412Z,39.38
2018-03-21T11:55:52.661Z,38.35
2018-03-21T11:58:20.108Z,33.53
2018-03-21T12:00:47.552Z,35.45
2018-03-21T12:03:15.318Z,33.75
2018-03-21T12:05:42.761Z,32.92
2018-03-21T12:08:10.210Z,35.60
2018-03-21T12:10:38.005Z,38.95
2018-03-21T12:13:05.461Z,36.67
2018-03-21T12:15:32.962Z,35.08
2018-03-21T12:18:00.727Z,42.45
2018-03-21T12:20:28.933Z,43.58
2018-03-21T12:22:56.404Z,38.58
2018-03-21T12:25:23.838Z,37.88
2018-03-21T12:27:51.304Z,34.63
2018-03-21T12:30:18.753Z,28.60
2018-03-21T12:32:46.380Z,27.75
2018-03-21T12:35:13.811Z,30.52
2018-03-21T12:37:41.250Z,29.25
2018-03-21T12:40:08.708Z,26.60
2018-03-21T12:42:36.197Z,27.55
2018-03-21T12:45:03.636Z,28.83
2018-03-21T12:47:31.079Z,28.85
2018-03-21T12:50:02.318Z,27.52
2018-03-21T12:52:29.757Z,28.75
2018-03-21T12:54:57.230Z,24.92
2018-03-21T12:57:24.669Z,25.80
2018-03-21T12:59:52.120Z,28.77
2018-03-21T13:02:19.605Z,26.95
2018-03-21T13:04:47.588Z,29.80
2018-03-21T13:07:15.027Z,28.58
2018-03-21T13:09:42.481Z,32.17
2018-03-21T13:12:09.941Z,26.85
2018-03-21T13:14:37.510Z,24.23
2018-03-21T13:17:04.970Z,23.20
2018-03-21T13:19:32.409Z,23.62
2018-03-21T13:22:00.007Z,21.15
2018-03-21T13:24:27.449Z,22.15
2018-03-21T13:26:54.889Z,20.90
2018-03-21T13:29:22.352Z,22.17
2018-03-21T13:31:49.818Z,22.37
2018-03-21T13:34:17.714Z,23.42
2018-03-21T13:36:45.162Z,21.08
2018-03-21T13:39:12.772Z,22.25
2018-03-21T13:41:40.212Z,20.23
2018-03-21T13:44:08.443Z,21.35
2018-03-21T13:46:35.918Z,23.67
2018-03-21T13:49:03.380Z,22.98
2018-03-21T13:51:30.849Z,24.83
2018-03-21T13:53:58.325Z,25.45
2018-03-21T13:56:26.594Z,22.95
2018-03-21T13:58:54.800Z,24.65
2018-03-21T14:01:22.268Z,21.62
2018-03-21T14:03:49.715Z,22.75
2018-03-21T14:06:17.385Z,22.40
2018-03-21T14:08:44.853Z,23.38
2018-03-21T14:11:12.301Z,24.35
2018-03-21T14:13:41.038Z,21.60
2018-03-21T14:16:08.544Z,21.05
2018-03-21T14:18:36.056Z,21.65
2018-03-21T14:21:03.612Z,25.65
2018-03-21T14:23:31.052Z,23.30
2018-03-21T14:25:58.540Z,18.70
2018-03-21T14:28:25.977Z,24.15
2018-03-21T14:30:53.456Z,26.73
2018-03-21T14:33:21.698Z,19.70
2018-03-21T14:35:54.054Z,21.15
2018-03-21T14:38:21.836Z,22.62
2018-03-21T14:40:49.290Z,27.37
2018-03-21T14:43:16.787Z,24.67
2018-03-21T14:45:44.218Z,25.25
2018-03-21T14:48:11.683Z,29.55
2018-03-21T14:50:39.282Z,32.05
2018-03-21T14:53:06.725Z,25.33
2018-03-21T14:55:34.205Z,26.95
2018-03-21T14:58:01.682Z,30.42
2018-03-21T15:00:29.123Z,29.10
2018-03-21T15:02:56.617Z,28.58
2018-03-21T15:05:24.822Z,31.20
2018-03-21T15:07:52.264Z,28.38
2018-03-21T15:10:19.824Z,28.35
2018-03-21T15:12:47.274Z,25.55
2018-03-21T15:15:14.715Z,27.23
2018-03-21T15:17:42.185Z,23.25
2018-03-21T15:20:09.631Z,31.23
2018-03-21T15:22:37.168Z,29.92
2018-03-21T15:25:04.612Z,26.45
2018-03-21T15:27:32.604Z,24.40
2018-03-21T15:30:00.100Z,26.08
2018-03-21T15:32:27.550Z,25.08
2018-03-21T15:34:55.006Z,26.17
2018-03-21T15:37:23.912Z,26.52
2018-03-21T15:39:51.501Z,25.17
2018-03-21T15:42:19.715Z,23.73
2018-03-21T15:44:47.341Z,25.65
2018-03-21T15:47:14.759Z,27.15
2018-03-21T15:49:42.229Z,28.52
2018-03-21T15:52:09.714Z,25.10
2018-03-21T15:54:37.152Z,26.85
2018-03-21T15:57:05.404Z,24.08
2018-03-21T15:59:32.877Z,25.77
2018-03-21T16:02:00.325Z,27.75
2018-03-21T16:04:27.825Z,25.15
2018-03-21T16:06:55.267Z,32.30
2018-03-21T16:09:23.914Z,25.75
2018-03-21T16:11:51.362Z,27.13
2018-03-21T16:14:18.820Z,24.65
2018-03-21T16:16:46.295Z,22.00
2018-03-21T16:19:13.786Z,23.80
2018-03-21T16:21:41.232Z,25.88
2018-03-21T16:24:09.442Z,26.37
2018-03-21T16:26:36.981Z,32.53
2018-03-21T16:29:05.289Z,29.85
2018-03-21T16:31:33.516Z,26.60
2018-03-21T16:34:01.741Z,27.58
2018-03-21T16:36:29.209Z,27.13
2018-03-21T16:38:58.347Z,27.73
2018-03-21T16:41:26.662Z,29.15
2018-03-21T16:43:54.108Z,29.25
2018-03-21T16:46:21.589Z,27.23
2018-03-21T16:48:49.956Z,29.02
2018-03-21T16:51:17.434Z,27.05
2018-03-21T16:53:44.937Z,30.95
2018-03-21T16:56:13.167Z,29.95
2018-03-21T16:58:44.437Z,27.55
2018-03-21T17:01:11.913Z,32.40
2018-03-21T17:03:39.384Z,28.52
2018-03-21T17:06:07.620Z,28.02
2018-03-21T17:08:35.119Z,30.30
2018-03-21T17:11:03.373Z,29.92
2018-03-21T17:13:30.832Z,33.83
2018-03-21T17:15:58.391Z,30.80
2018-03-21T17:18:25.831Z,28.17
2018-03-21T17:20:53.322Z,28.10
2018-03-21T17:23:21.570Z,29.12
2018-03-21T17:25:49.168Z,28.35
2018-03-21T17:28:16.721Z,26.50
2018-03-21T17:30:44.339Z,28.92
2018-03-21T17:33:11.787Z,29.52
2018-03-21T17:35:39.258Z,24.90
2018-03-21T17:38:06.696Z,30.30
2018-03-21T17:40:36.010Z,33.28
2018-03-21T17:43:04.303Z,31.40
2018-03-21T17:45:31.748Z,30.12
2018-03-21T17:47:59.317Z,33.65
2018-03-21T17:50:26.754Z,25.98
2018-03-21T17:52:54.408Z,25.55
2018-03-21T17:55:21.989Z,30.27
2018-03-21T17:57:49.650Z,29.67
2018-03-21T18:00:17.199Z,28.05
2018-03-21T18:02:44.669Z,25.35
2018-03-21T18:05:12.179Z,29.75
2018-03-21T18:07:39.623Z,25.73
2018-03-21T18:10:07.093Z,26.45
2018-03-21T18:12:34.760Z,29.75
2018-03-21T18:15:02.352Z,27.77
2018-03-21T18:17:29.790Z,32.83
2018-03-21T18:19:58.029Z,27.67
2018-03-21T18:22:25.493Z,34.72
2018-03-21T18:24:52.956Z,29.55
2018-03-21T18:27:20.415Z,34.13
2018-03-21T18:29:51.568Z,35.38
2018-03-21T18:32:19.785Z,39.75
2018-03-21T18:34:47.283Z,38.92
2018-03-21T18:37:14.737Z,41.03
2018-03-21T18:39:48.972Z,38.25
2018-03-21T18:42:17.285Z,43.47
2018-03-21T18:44:44.724Z,31.17
2018-03-21T18:47:13.005Z,30.15
2018-03-21T18:49:40.485Z,30.00
2018-03-21T18:52:07.925Z,31.85
2018-03-21T18:54:36.260Z,36.50
2018-03-21T18:57:05.030Z,34.67
2018-03-21T18:59:32.914Z,33.35
2018-03-21T19:02:11.301Z,31.85
2018-03-21T19:04:38.913Z,34.63
2018-03-21T19:07:22.260Z,34.72
2018-03-21T19:09:49.747Z,33.30
2018-03-21T19:12:17.188Z,40.92
2018-03-21T19:14:44.700Z,35.45
2018-03-21T19:17:12.556Z,39.85
2018-03-21T19:19:40.061Z,38.03
2018-03-21T19:22:09.289Z,46.75
2018-03-21T19:24:37.674Z,42.10
2018-03-21T19:27:11.364Z,40.75
2018-03-21T19:29:38.816Z,46.63
2018-03-21T19:32:06.293Z,42.97
2018-03-21T19:34:34.177Z,42.38
2018-03-21T19:37:13.804Z,49.95
2018-03-21T19:39:41.261Z,50.10
2018-03-21T19:42:08.698Z,47.80
2018-03-21T19:44:41.169Z,39.08
2018-03-21T19:47:08.626Z,42.15
2018-03-21T19:49:36.110Z,47.50
2018-03-21T19:52:03.553Z,44.90
2018-03-21T19:54:30.993Z,41.67
2018-03-21T19:56:58.473Z,37.97
2018-03-21T19:59:25.942Z,47.80
2018-03-21T20:01:53.380Z,42.17
2018-03-21T20:04:20.978Z,39.33
2018-03-21T20:09:49.750Z,45.92
2018-03-21T20:12:17.380Z,45.78
2018-03-21T20:14:44.876Z,36.83
2018-03-21T20:17:12.320Z,41.75
2018-03-21T20:19:45.039Z,40.10
2018-03-21T20:22:12.629Z,41.15
2018-03-21T20:24:45.149Z,46.55
2018-03-21T20:27:12.602Z,44.60
2018-03-21T20:29:50.001Z,43.50
2018-03-21T20:32:17.661Z,39.25
2018-03-21T20:34:45.111Z,47.10
2018-03-21T20:37:12.565Z,43.92
2018-03-21T20:39:42.022Z,45.78
2018-03-21T20:42:09.466Z,45.20
2018-03-21T20:44:38.600Z,44.60
2018-03-21T20:47:14.985Z,40.38
2018-03-21T20:49:42.578Z,45.47
2018-03-21T20:52:10.036Z,48.55
2018-03-21T20:54:38.276Z,44.38
2018-03-21T20:57:05.717Z,39.65
2018-03-21T20:59:33.198Z,45.97
2018-03-21T21:02:00.646Z,44.75
2018-03-21T21:04:28.082Z,49.55
2018-03-21T21:06:55.613Z,40.50
2018-03-21T21:09:23.853Z,48.75
2018-03-21T21:11:51.297Z,44.42
2018-03-21T21:14:18.885Z,42.65
2018-03-21T21:16:46.590Z,42.80
2018-03-21T21:19:14.036Z,45.65
2018-03-21T21:21:58.845Z,40.40
2018-03-21T21:24:27.076Z,43.25
2018-03-21T21:26:54.520Z,40.78
2018-03-21T21:29:24.744Z,38.92
2018-03-21T21:31:52.958Z,43.17
2018-03-21T21:34:22.437Z,38.75
2018-03-21T21:36:50.151Z,55.45
2018-03-21T21:39:19.115Z,51.40
2018-03-21T21:41:49.134Z,44.30
2018-03-21T21:44:17.148Z,49.10
2018-03-21T21:46:44.874Z,43.72
2018-03-21T21:49:12.419Z,43.08
2018-03-21T21:51:40.239Z,39.25
2018-03-21T21:54:08.830Z,47.75
2018-03-21T21:56:37.638Z,49.63
2018-03-21T21:59:05.397Z,49.05
2018-03-21T22:01:33.178Z,47.85
2018-03-21T22:04:00.981Z,44.55
2018-03-21T22:06:29.420Z,47.47
2018-03-21T22:08:57.087Z,45.75
2018-03-21T22:11:25.539Z,43.85
2018-03-21T22:13:53.275Z,40.83
2018-03-21T22:16:21.262Z,42.58
2018-03-21T22:18:49.539Z,45.08
2018-03-21T22:21:18.004Z,43.33
2018-03-21T22:23:45.996Z,47.00
2018-03-21T22:26:14.585Z,43.65
2018-03-21T22:28:42.168Z,41.95
2018-03-21T22:31:10.552Z,42.25
2018-03-21T22:33:38.010Z,44.55
2018-03-21T22:36:05.555Z,41.72
2018-03-21T22:38:33.017Z,46.53
2018-03-21T22:41:01.249Z,58.92
2018-03-21T22:43:28.712Z,46.33
2018-03-21T22:45:56.156Z,44.47
2018-03-21T22:48:23.745Z,43.72
2018-03-21T22:50:51.539Z,45.97
2018-03-21T22:53:19.228Z,51.25
2018-03-21T22:55:46.690Z,44.78
2018-03-21T22:58:14.288Z,41.35
2018-03-21T23:00:41.958Z,50.25
2018-03-21T23:03:09.504Z,43.20
2018-03-21T23:05:37.756Z,44.42
2018-03-21T23:08:05.243Z,43.97
2018-03-21T23:10:48.618Z,40.53
2018-03-21T23:13:16.097Z,47.38
2018-03-21T23:15:43.557Z,46.97
2018-03-21T23:18:11.108Z,40.30
2018-03-21T23:20:41.266Z,40.92
2018-03-21T23:23:09.370Z,44.97
2018-03-21T23:25:37.579Z,41.22
2018-03-21T23:28:05.049Z,42.78
2018-03-21T23:30:32.513Z,44.63
2018-03-21T23:32:59.986Z,41.85
2018-03-21T23:35:27.735Z,45.15
2018-03-21T23:37:55.281Z,42.53
2018-03-21T23:40:22.722Z,42.00
2018-03-21T23:42:50.199Z,48.72
2018-03-21T23:45:17.919Z,37.78
2018-03-21T23:47:46.129Z,44.25
2018-03-21T23:50:13.586Z,39.38
2018-03-21T23:52:41.058Z,41.88
2018-03-21T23:55:08.514Z,46.65
2018-03-21T23:57:35.995Z,38.58
